Time;durP1;ratioP1;P1;durP2;ratioP2;P2;SDS_P1;SDS_P2;PMS_P1;PMS_P2;Temp;Humidity;BMP_temperature;BMP_pressure;BME280_temperature;BME280_humidity;BME280_pressure;Samples;Min_cycle;Max_cycle;Signal;HPM_P1;HPM_P2
2023/02/19 00:01:17;;;;;;;;;111.00;78.25;;;;;;;;5019124;28;51154;-54
2023/02/19 00:04:06;;;;;;;;;99.75;73.25;;;;;;;;5019731;28;51090;-51
2023/02/19 00:06:50;;;;;;;;;108.50;74.75;;;;;;;;5019138;28;51056;-53
2023/02/19 00:09:34;;;;;;;;;116.25;77.50;;;;;;;;5019140;28;51362;-51
2023/02/19 00:12:19;;;;;;;;;123.50;85.50;;;;;;;;5019180;28;51641;-51
2023/02/19 00:15:03;;;;;;;;;123.50;92.75;;;;;;;;5019301;28;51552;-53
2023/02/19 00:17:48;;;;;;;;;129.50;84.75;;;;;;;;5019420;28;51079;-54
2023/02/19 00:20:32;;;;;;;;;115.25;83.25;;;;;;;;5037756;28;51425;-52
2023/02/19 00:23:16;;;;;;;;;125.75;91.00;;;;;;;;5037937;28;51015;-54
2023/02/19 00:26:02;;;;;;;;;124.75;93.00;;;;;;;;5039004;28;51171;-48
2023/02/19 00:28:48;;;;;;;;;97.25;69.75;;;;;;;;5039158;28;51116;-51
2023/02/19 00:31:33;;;;;;;;;133.75;92.50;;;;;;;;5038580;28;51336;-52
2023/02/19 00:34:17;;;;;;;;;117.75;82.25;;;;;;;;5039062;28;51103;-53
2023/02/19 00:37:01;;;;;;;;;91.75;81.75;;;;;;;;5038973;28;51395;-51
2023/02/19 00:39:46;;;;;;;;;126.25;81.25;;;;;;;;5038751;28;51094;-54
2023/02/19 00:42:30;;;;;;;;;128.50;94.50;;;;;;;;5039019;28;51153;-50
2023/02/19 00:45:14;;;;;;;;;123.25;86.00;;;;;;;;5038905;28;51360;-52
2023/02/19 00:47:59;;;;;;;;;132.75;94.50;;;;;;;;5038707;28;51196;-54
2023/02/19 00:50:43;;;;;;;;;131.50;93.00;;;;;;;;5040096;28;51135;-49
2023/02/19 00:53:27;;;;;;;;;109.75;76.50;;;;;;;;5042980;28;51144;-52
2023/02/19 00:56:12;;;;;;;;;140.50;93.75;;;;;;;;5042610;28;50956;-52
2023/02/19 00:58:57;;;;;;;;;134.00;95.25;;;;;;;;5042637;28;51169;-53
2023/02/19 01:01:43;;;;;;;;;130.50;88.75;;;;;;;;5042665;28;51643;-52
2023/02/19 01:04:27;;;;;;;;;133.25;94.75;;;;;;;;5039087;28;51088;-50
2023/02/19 01:07:11;;;;;;;;;130.50;98.75;;;;;;;;5041681;28;51195;-54
2023/02/19 01:09:56;;;;;;;;;143.25;90.25;;;;;;;;5041256;28;51126;-52
2023/02/19 01:12:40;;;;;;;;;114.50;84.00;;;;;;;;5042405;28;51603;-53
2023/02/19 01:15:25;;;;;;;;;130.00;92.00;;;;;;;;5042195;28;51092;-50
2023/02/19 01:18:10;;;;;;;;;137.25;97.00;;;;;;;;5042700;28;51016;-53
2023/02/19 01:20:54;;;;;;;;;133.00;92.50;;;;;;;;5041849;28;51456;-51
2023/02/19 01:23:39;;;;;;;;;115.50;90.75;;;;;;;;5042017;28;51137;-54
2023/02/19 01:26:25;;;;;;;;;111.00;84.50;;;;;;;;5042298;28;51306;-50
2023/02/19 01:29:09;;;;;;;;;129.00;91.00;;;;;;;;5040883;28;51065;-51
2023/02/19 01:31:54;;;;;;;;;139.50;98.00;;;;;;;;5041895;28;51154;-50
2023/02/19 01:34:38;;;;;;;;;130.00;97.50;;;;;;;;5042038;28;51202;-52
2023/02/19 01:37:22;;;;;;;;;128.75;95.00;;;;;;;;5042140;28;51065;-50
2023/02/19 01:40:07;;;;;;;;;134.00;100.00;;;;;;;;5041798;28;51086;-53
2023/02/19 01:42:51;;;;;;;;;129.25;95.00;;;;;;;;5042079;28;51120;-53
2023/02/19 01:45:42;;;;;;;;;128.00;92.75;;;;;;;;5041672;28;51017;-51
2023/02/19 01:48:28;;;;;;;;;121.50;86.25;;;;;;;;5041530;28;51121;-52
2023/02/19 01:51:16;;;;;;;;;115.25;82.00;;;;;;;;5041954;28;51534;-51
2023/02/19 01:54:04;;;;;;;;;104.25;80.75;;;;;;;;5040151;28;51070;-50
2023/02/19 01:56:49;;;;;;;;;117.25;80.75;;;;;;;;5041426;28;51056;-51
2023/02/19 01:59:33;;;;;;;;;117.00;83.00;;;;;;;;5041489;28;51207;-55
2023/02/19 02:02:17;;;;;;;;;110.25;81.75;;;;;;;;5041113;28;51646;-54
2023/02/19 02:05:02;;;;;;;;;116.00;78.50;;;;;;;;5041082;28;51150;-53
2023/02/19 02:10:49;;;;;;;;;114.50;84.75;;;;;;;;5041026;28;51124;-53
2023/02/19 02:13:34;;;;;;;;;117.25;87.25;;;;;;;;5041270;28;51108;-52
2023/02/19 02:16:18;;;;;;;;;119.25;85.75;;;;;;;;5039664;28;51194;-53
2023/02/19 02:19:16;;;;;;;;;117.75;83.75;;;;;;;;5040734;28;51128;-50
2023/02/19 02:22:19;;;;;;;;;115.50;83.25;;;;;;;;5040951;28;51133;-53
2023/02/19 02:25:24;;;;;;;;;123.75;86.00;;;;;;;;5040867;28;51135;-53
2023/02/19 02:28:34;;;;;;;;;115.25;88.75;;;;;;;;5040735;28;51551;-53
2023/02/19 02:31:22;;;;;;;;;118.50;86.00;;;;;;;;5020188;28;51152;-50
2023/02/19 02:34:09;;;;;;;;;122.00;87.75;;;;;;;;5025657;28;51123;-54
2023/02/19 02:36:55;;;;;;;;;121.50;91.75;;;;;;;;5040558;28;51336;-53
2023/02/19 02:39:40;;;;;;;;;78.00;47.00;;;;;;;;5040888;28;51088;-50
2023/02/19 02:42:27;;;;;;;;;124.75;90.75;;;;;;;;5040773;28;51053;-50
2023/02/19 02:45:33;;;;;;;;;123.50;82.50;;;;;;;;5040461;28;51179;-52
2023/02/19 02:48:24;;;;;;;;;118.50;88.50;;;;;;;;5040555;28;51019;-50
2023/02/19 02:51:24;;;;;;;;;119.50;91.50;;;;;;;;5040281;28;51109;-53
2023/02/19 02:57:17;;;;;;;;;125.25;85.25;;;;;;;;5040212;28;51147;-53
2023/02/19 03:00:02;;;;;;;;;121.00;88.50;;;;;;;;5040559;28;51125;-52
2023/02/19 03:02:46;;;;;;;;;120.75;83.50;;;;;;;;5040377;28;51485;-51
2023/02/19 03:08:39;;;;;;;;;120.25;83.25;;;;;;;;5040107;28;51508;-51
2023/02/19 03:20:44;;;;;;;;;138.25;109.50;;;;;;;;5039826;28;51148;-53
2023/02/19 03:26:35;;;;;;;;;157.25;121.00;;;;;;;;5040045;28;51088;-55
2023/02/19 03:29:25;;;;;;;;;148.50;114.25;;;;;;;;5039298;28;51414;-52
2023/02/19 03:32:12;;;;;;;;;173.00;125.75;;;;;;;;5039688;28;51200;-55
2023/02/19 03:35:00;;;;;;;;;142.25;116.50;;;;;;;;5039728;28;51314;-53
2023/02/19 03:37:48;;;;;;;;;160.25;126.75;;;;;;;;5039891;28;51033;-51
2023/02/19 03:40:49;;;;;;;;;157.25;129.75;;;;;;;;4953003;28;51208;-50
2023/02/19 03:43:36;;;;;;;;;171.00;132.25;;;;;;;;4957918;28;51032;-53
2023/02/19 03:46:23;;;;;;;;;164.50;134.00;;;;;;;;4958178;28;51207;-52
2023/02/19 03:49:22;;;;;;;;;157.25;126.75;;;;;;;;4957960;28;51042;-52
2023/02/19 03:52:25;;;;;;;;;170.00;127.75;;;;;;;;4958516;28;51018;-52
2023/02/19 03:55:09;;;;;;;;;141.50;119.75;;;;;;;;4957969;28;51480;-53
2023/02/19 03:57:56;;;;;;;;;159.25;126.25;;;;;;;;4958055;28;52203;-55
2023/02/19 04:00:41;;;;;;;;;162.75;118.00;;;;;;;;4957959;28;51197;-51
2023/02/19 04:03:30;;;;;;;;;150.75;113.50;;;;;;;;4957955;28;51054;-54
2023/02/19 04:06:22;;;;;;;;;154.75;121.25;;;;;;;;4957825;28;51475;-53
2023/02/19 04:09:08;;;;;;;;;153.00;114.75;;;;;;;;4957748;28;51435;-55
2023/02/19 04:11:54;;;;;;;;;151.00;111.50;;;;;;;;4958096;28;51486;-52
2023/02/19 04:14:41;;;;;;;;;155.25;116.00;;;;;;;;4973765;28;51547;-48
2023/02/19 04:17:28;;;;;;;;;148.50;116.50;;;;;;;;5019392;28;51084;-49
2023/02/19 04:20:12;;;;;;;;;154.00;120.50;;;;;;;;5034805;28;51119;-52
2023/02/19 04:22:57;;;;;;;;;145.50;116.50;;;;;;;;5038946;28;51143;-51
2023/02/19 04:25:43;;;;;;;;;158.00;119.25;;;;;;;;5042442;28;51141;-55
2023/02/19 04:28:27;;;;;;;;;161.25;112.25;;;;;;;;5040514;28;50980;-54
2023/02/19 04:31:12;;;;;;;;;142.00;107.25;;;;;;;;5043059;28;51085;-56
2023/02/19 04:33:56;;;;;;;;;143.25;105.50;;;;;;;;5043064;28;51020;-54
2023/02/19 04:36:40;;;;;;;;;137.75;106.00;;;;;;;;5043096;28;51505;-54
2023/02/19 04:39:24;;;;;;;;;147.25;108.00;;;;;;;;5039596;28;51157;-54
2023/02/19 04:42:09;;;;;;;;;137.75;107.75;;;;;;;;5043438;28;51004;-52
2023/02/19 04:44:53;;;;;;;;;137.25;106.25;;;;;;;;5042940;28;51551;-55
2023/02/19 04:47:38;;;;;;;;;139.25;111.25;;;;;;;;5042726;28;51159;-55
2023/02/19 04:50:22;;;;;;;;;141.00;109.25;;;;;;;;5043046;28;51346;-54
2023/02/19 04:53:07;;;;;;;;;138.50;111.00;;;;;;;;5042980;28;51310;-51
2023/02/19 04:55:52;;;;;;;;;137.25;108.25;;;;;;;;5042546;28;51553;-49
2023/02/19 04:58:36;;;;;;;;;141.00;111.75;;;;;;;;5042395;28;51173;-50
2023/02/19 05:01:21;;;;;;;;;136.00;106.50;;;;;;;;5042817;28;51414;-51
2023/02/19 05:04:05;;;;;;;;;131.75;102.25;;;;;;;;5042452;28;51044;-52
2023/02/19 05:06:50;;;;;;;;;148.25;108.00;;;;;;;;5042761;28;51620;-50
2023/02/19 05:09:34;;;;;;;;;140.25;108.75;;;;;;;;5042309;28;51166;-52
2023/02/19 05:12:18;;;;;;;;;136.00;107.75;;;;;;;;5041174;28;51064;-53
2023/02/19 05:15:03;;;;;;;;;140.50;108.00;;;;;;;;5036711;28;51507;-51
2023/02/19 05:17:47;;;;;;;;;143.00;107.25;;;;;;;;5042291;28;51021;-51
2023/02/19 05:20:32;;;;;;;;;150.75;114.00;;;;;;;;5041962;28;51014;-52
2023/02/19 05:23:16;;;;;;;;;150.75;110.75;;;;;;;;5042128;28;51231;-53
2023/02/19 05:26:08;;;;;;;;;147.75;112.75;;;;;;;;5042213;28;51946;-53
2023/02/19 05:28:53;;;;;;;;;148.00;113.00;;;;;;;;5042004;28;51376;-53
2023/02/19 05:31:37;;;;;;;;;145.75;109.75;;;;;;;;5042508;28;51190;-52
2023/02/19 05:34:21;;;;;;;;;140.00;110.75;;;;;;;;5041940;28;51207;-50
2023/02/19 05:37:06;;;;;;;;;153.50;114.25;;;;;;;;5041194;28;51131;-52
2023/02/19 05:39:50;;;;;;;;;128.00;101.25;;;;;;;;5041862;28;51477;-51
2023/02/19 05:42:34;;;;;;;;;134.25;90.50;;;;;;;;5042097;28;51131;-51
2023/02/19 05:45:19;;;;;;;;;138.00;108.25;;;;;;;;5041614;28;51333;-52
2023/02/19 05:48:04;;;;;;;;;147.75;108.50;;;;;;;;5041621;28;51167;-53
2023/02/19 05:50:48;;;;;;;;;132.75;103.25;;;;;;;;5041841;28;51464;-55
2023/02/19 05:53:33;;;;;;;;;136.00;105.50;;;;;;;;5041524;28;51036;-53
2023/02/19 05:56:17;;;;;;;;;129.00;101.00;;;;;;;;5041700;28;51179;-52
2023/02/19 05:59:06;;;;;;;;;143.00;103.75;;;;;;;;5041177;28;51416;-50
2023/02/19 06:01:51;;;;;;;;;142.50;103.00;;;;;;;;5041521;28;51158;-54
2023/02/19 06:04:36;;;;;;;;;122.00;104.75;;;;;;;;5041402;28;51068;-51
2023/02/19 06:07:20;;;;;;;;;145.75;103.25;;;;;;;;5041651;28;51493;-54
2023/02/19 06:10:06;;;;;;;;;141.00;102.75;;;;;;;;5040918;28;51340;-51
2023/02/19 06:12:53;;;;;;;;;124.25;95.25;;;;;;;;5041212;28;51472;-55
2023/02/19 06:15:38;;;;;;;;;136.75;99.50;;;;;;;;5041229;28;51459;-55
2023/02/19 06:18:22;;;;;;;;;138.50;99.75;;;;;;;;5040597;28;51099;-54
2023/02/19 06:21:07;;;;;;;;;121.75;90.50;;;;;;;;5041313;28;51283;-50
2023/02/19 06:23:51;;;;;;;;;122.50;94.25;;;;;;;;5040892;28;51462;-51
2023/02/19 06:26:37;;;;;;;;;109.75;69.00;;;;;;;;5040979;28;51211;-52
2023/02/19 06:29:21;;;;;;;;;121.00;91.50;;;;;;;;5040935;28;51236;-52
2023/02/19 06:32:06;;;;;;;;;125.50;92.75;;;;;;;;5041109;28;51064;-53
2023/02/19 06:34:50;;;;;;;;;131.75;97.50;;;;;;;;5040702;28;51283;-55
2023/02/19 06:37:34;;;;;;;;;118.00;93.00;;;;;;;;5040862;28;51211;-52
2023/02/19 06:40:19;;;;;;;;;123.75;92.75;;;;;;;;5040661;28;51083;-54
2023/02/19 06:43:03;;;;;;;;;134.50;100.25;;;;;;;;5040721;28;51027;-49
2023/02/19 06:45:47;;;;;;;;;126.25;96.75;;;;;;;;5040956;28;51173;-50
2023/02/19 06:48:32;;;;;;;;;122.50;84.25;;;;;;;;5039472;28;51065;-57
2023/02/19 06:51:18;;;;;;;;;126.75;97.25;;;;;;;;5033527;28;51167;-54
2023/02/19 06:54:02;;;;;;;;;125.50;94.50;;;;;;;;5025249;28;51129;-53
2023/02/19 06:56:46;;;;;;;;;141.25;111.75;;;;;;;;5040644;28;51043;-52
2023/02/19 06:59:31;;;;;;;;;140.00;103.50;;;;;;;;5040186;28;51411;-54
2023/02/19 07:02:15;;;;;;;;;126.50;100.50;;;;;;;;5040272;28;51098;-53
2023/02/19 07:04:59;;;;;;;;;143.25;101.00;;;;;;;;5040617;28;51970;-54
2023/02/19 07:07:44;;;;;;;;;145.25;104.00;;;;;;;;5024759;28;51495;-53
2023/02/19 07:10:29;;;;;;;;;149.50;103.25;;;;;;;;5040409;28;51113;-54
2023/02/19 07:13:13;;;;;;;;;147.50;108.25;;;;;;;;5040022;28;51583;-52
2023/02/19 07:15:59;;;;;;;;;153.25;115.25;;;;;;;;5014642;28;51177;-49
2023/02/19 07:18:43;;;;;;;;;133.25;107.50;;;;;;;;5022879;28;51118;-54
2023/02/19 07:21:28;;;;;;;;;170.50;116.00;;;;;;;;5040137;28;51158;-53
2023/02/19 07:24:12;;;;;;;;;126.75;98.75;;;;;;;;5039707;28;51395;-52
2023/02/19 07:26:57;;;;;;;;;141.25;101.75;;;;;;;;5039882;28;51170;-45
2023/02/19 07:29:41;;;;;;;;;119.50;91.00;;;;;;;;5039860;28;51457;-44
2023/02/19 07:32:25;;;;;;;;;120.25;90.00;;;;;;;;5039496;28;51180;-45
2023/02/19 07:35:10;;;;;;;;;119.00;90.25;;;;;;;;5040032;28;51131;-45
2023/02/19 07:37:54;;;;;;;;;122.50;96.50;;;;;;;;5038457;28;51539;-47
2023/02/19 07:40:39;;;;;;;;;128.00;97.75;;;;;;;;5039341;28;51218;-44
2023/02/19 07:43:25;;;;;;;;;121.75;92.25;;;;;;;;5039383;28;51501;-44
2023/02/19 07:46:10;;;;;;;;;125.50;88.25;;;;;;;;5039944;28;51277;-45
2023/02/19 07:48:55;;;;;;;;;135.75;103.25;;;;;;;;5039378;28;51333;-47
2023/02/19 07:51:40;;;;;;;;;122.75;98.50;;;;;;;;5039311;28;51205;-48
2023/02/19 07:54:24;;;;;;;;;143.00;102.50;;;;;;;;5039324;28;51186;-44
2023/02/19 07:57:08;;;;;;;;;142.25;108.00;;;;;;;;5038425;28;51227;-46
2023/02/19 07:59:53;;;;;;;;;116.25;103.00;;;;;;;;5039293;28;51669;-45
2023/02/19 08:05:41;;;;;;;;;135.00;98.00;;;;;;;;5039103;28;51147;-46
2023/02/19 08:08:25;;;;;;;;;118.75;89.00;;;;;;;;5039183;28;51275;-48
2023/02/19 08:14:12;;;;;;;;;122.50;93.25;;;;;;;;5033648;28;51450;-44
2023/02/19 08:16:56;;;;;;;;;141.75;105.25;;;;;;;;5039176;28;51065;-47
2023/02/19 08:19:41;;;;;;;;;135.75;105.50;;;;;;;;5038810;28;51467;-45
2023/02/19 08:22:27;;;;;;;;;131.75;102.25;;;;;;;;5038919;28;51133;-46
2023/02/19 08:25:11;;;;;;;;;161.25;115.25;;;;;;;;5039393;28;51134;-45
2023/02/19 08:27:56;;;;;;;;;153.75;111.25;;;;;;;;5038871;28;51506;-46
2023/02/19 08:30:43;;;;;;;;;150.00;112.50;;;;;;;;5039015;28;51308;-46
2023/02/19 08:33:27;;;;;;;;;143.75;111.00;;;;;;;;5039037;28;51567;-44
2023/02/19 08:36:11;;;;;;;;;139.75;107.00;;;;;;;;5039434;28;52655;-47
2023/02/19 08:38:56;;;;;;;;;146.25;109.75;;;;;;;;5038766;28;51214;-46
2023/02/19 08:41:40;;;;;;;;;154.00;108.25;;;;;;;;5038798;28;51125;-46
2023/02/19 08:44:25;;;;;;;;;143.75;105.00;;;;;;;;5039139;28;51110;-45
2023/02/19 08:47:09;;;;;;;;;142.50;108.25;;;;;;;;5038727;28;51138;-46
2023/02/19 08:49:53;;;;;;;;;138.00;101.75;;;;;;;;5023568;28;51156;-46
2023/02/19 08:52:38;;;;;;;;;131.00;100.50;;;;;;;;5038646;28;51344;-46
2023/02/19 08:55:22;;;;;;;;;128.25;95.00;;;;;;;;5013644;28;51178;-44
2023/02/19 08:58:07;;;;;;;;;148.00;112.50;;;;;;;;5018562;28;51035;-47
2023/02/19 09:00:52;;;;;;;;;136.25;103.25;;;;;;;;5019073;28;51137;-47
2023/02/19 09:03:36;;;;;;;;;131.25;102.00;;;;;;;;5018862;28;51350;-46
2023/02/19 09:06:20;;;;;;;;;135.25;99.00;;;;;;;;5018641;28;51220;-46
2023/02/19 09:09:05;;;;;;;;;127.25;94.75;;;;;;;;5018634;28;51181;-47
2023/02/19 09:11:49;;;;;;;;;120.00;91.00;;;;;;;;5020196;28;51133;-45
2023/02/19 09:14:34;;;;;;;;;132.50;96.00;;;;;;;;5022731;28;51051;-46
2023/02/19 09:17:19;;;;;;;;;120.00;96.00;;;;;;;;5027093;28;51517;-46
2023/02/19 09:20:03;;;;;;;;;130.00;93.00;;;;;;;;5036993;28;51487;-47
2023/02/19 09:22:48;;;;;;;;;132.00;99.50;;;;;;;;5039056;28;51207;-46
2023/02/19 09:25:32;;;;;;;;;135.50;96.25;;;;;;;;5042477;28;51151;-45
2023/02/19 09:28:16;;;;;;;;;133.75;98.75;;;;;;;;5041943;28;51056;-46
2023/02/19 09:31:05;;;;;;;;;134.75;98.50;;;;;;;;5041875;28;51052;-46
2023/02/19 09:33:49;;;;;;;;;150.25;105.75;;;;;;;;5041997;28;51171;-46
2023/02/19 09:36:33;;;;;;;;;137.00;95.50;;;;;;;;5040657;28;51062;-47
2023/02/19 09:39:18;;;;;;;;;124.75;97.00;;;;;;;;5042047;28;51186;-45
2023/02/19 09:42:14;;;;;;;;;128.50;96.25;;;;;;;;5040488;28;51052;-45
2023/02/19 09:44:59;;;;;;;;;125.50;96.50;;;;;;;;5041764;28;51198;-46
2023/02/19 09:47:43;;;;;;;;;128.50;93.25;;;;;;;;5041636;28;51054;-44
2023/02/19 09:50:40;;;;;;;;;119.25;86.25;;;;;;;;5040919;28;51002;-44
2023/02/19 09:53:27;;;;;;;;;137.75;104.00;;;;;;;;5041396;28;51038;-46
2023/02/19 09:56:11;;;;;;;;;130.75;91.75;;;;;;;;5041532;28;51197;-46
2023/02/19 09:58:57;;;;;;;;;122.25;93.00;;;;;;;;5041838;28;51542;-45
2023/02/19 10:01:43;;;;;;;;;122.50;91.00;;;;;;;;5041396;28;51135;-48
2023/02/19 10:04:27;;;;;;;;;121.50;87.75;;;;;;;;5039623;28;51071;-45
2023/02/19 10:07:17;;;;;;;;;119.50;87.50;;;;;;;;5041228;28;51548;-46
2023/02/19 10:10:13;;;;;;;;;111.75;86.50;;;;;;;;5040120;28;51219;-46
2023/02/19 10:13:21;;;;;;;;;120.75;85.25;;;;;;;;5040992;28;51067;-46
2023/02/19 10:16:09;;;;;;;;;125.00;89.00;;;;;;;;5041432;28;51360;-46
2023/02/19 10:18:55;;;;;;;;;116.00;93.50;;;;;;;;5036357;28;51502;-46
2023/02/19 10:21:40;;;;;;;;;116.50;91.00;;;;;;;;5040988;28;51156;-43
2023/02/19 10:24:26;;;;;;;;;109.00;84.75;;;;;;;;5040927;28;51312;-46
2023/02/19 10:27:12;;;;;;;;;120.25;86.50;;;;;;;;5040808;28;51085;-47
2023/02/19 10:29:57;;;;;;;;;115.00;88.25;;;;;;;;5041092;28;51076;-45
2023/02/19 10:32:56;;;;;;;;;121.00;89.25;;;;;;;;5040853;28;51167;-45
2023/02/19 10:35:54;;;;;;;;;109.75;80.50;;;;;;;;5040929;28;51036;-45
2023/02/19 10:38:44;;;;;;;;;107.50;83.50;;;;;;;;5040476;28;51024;-45
2023/02/19 10:41:28;;;;;;;;;119.25;84.00;;;;;;;;5040784;28;51259;-46
2023/02/19 10:44:12;;;;;;;;;111.75;77.00;;;;;;;;5040472;28;51394;-47
2023/02/19 10:46:58;;;;;;;;;112.00;86.50;;;;;;;;5040713;28;51122;-45
2023/02/19 10:49:45;;;;;;;;;105.00;83.25;;;;;;;;5040366;28;51144;-47
2023/02/19 10:52:31;;;;;;;;;90.50;62.75;;;;;;;;5040194;28;51134;-45
2023/02/19 10:55:25;;;;;;;;;108.75;79.25;;;;;;;;5040755;28;51100;-46
2023/02/19 10:58:26;;;;;;;;;123.50;83.75;;;;;;;;5040384;28;51436;-47
2023/02/19 11:01:12;;;;;;;;;106.00;78.25;;;;;;;;5040190;28;51144;-47
2023/02/19 11:04:16;;;;;;;;;106.00;80.50;;;;;;;;5040159;28;51212;-45
2023/02/19 11:07:13;;;;;;;;;112.00;79.00;;;;;;;;5040707;28;51025;-47
2023/02/19 11:09:58;;;;;;;;;111.75;81.00;;;;;;;;5040065;28;51080;-46
2023/02/19 11:12:46;;;;;;;;;98.00;76.50;;;;;;;;5040010;28;51353;-45
2023/02/19 11:15:35;;;;;;;;;115.50;84.75;;;;;;;;5039990;28;51547;-46
2023/02/19 11:18:24;;;;;;;;;123.50;82.25;;;;;;;;5039855;28;51018;-46
2023/02/19 11:21:23;;;;;;;;;114.75;80.75;;;;;;;;5019272;28;51253;-46
2023/02/19 11:24:20;;;;;;;;;119.00;83.00;;;;;;;;5019551;28;51609;-47
2023/02/19 11:27:05;;;;;;;;;103.00;74.75;;;;;;;;5019809;28;51071;-44
2023/02/19 11:32:35;;;;;;;;;118.00;81.00;;;;;;;;4958296;28;51229;-45
2023/02/19 11:35:21;;;;;;;;;117.25;82.75;;;;;;;;4957754;28;51521;-45
2023/02/19 11:38:07;;;;;;;;;119.00;82.75;;;;;;;;4958325;28;51024;-45
2023/02/19 11:41:26;;;;;;;;;129.50;87.75;;;;;;;;4958220;28;51616;-46
2023/02/19 11:44:29;;;;;;;;;113.75;79.50;;;;;;;;4900317;28;51114;-46
2023/02/19 11:47:31;;;;;;;;;105.25;78.00;;;;;;;;4958576;28;51157;-47
2023/02/19 11:50:15;;;;;;;;;104.00;75.75;;;;;;;;4957996;28;51392;-46
2023/02/19 11:53:17;;;;;;;;;112.50;85.25;;;;;;;;4957930;28;51105;-46
2023/02/19 11:56:15;;;;;;;;;110.50;80.75;;;;;;;;4957521;28;51137;-47
2023/02/19 11:59:01;;;;;;;;;113.25;88.50;;;;;;;;4958158;28;51177;-43
2023/02/19 12:01:45;;;;;;;;;106.50;74.25;;;;;;;;4957708;28;51566;-47
2023/02/19 12:04:34;;;;;;;;;113.50;78.25;;;;;;;;4957990;28;51246;-47
2023/02/19 12:07:34;;;;;;;;;100.00;78.75;;;;;;;;4958176;28;51169;-46
2023/02/19 12:10:27;;;;;;;;;102.25;77.25;;;;;;;;5000630;28;51224;-46
2023/02/19 12:13:30;;;;;;;;;105.75;85.25;;;;;;;;5019535;28;51164;-46
2023/02/19 12:16:20;;;;;;;;;109.25;85.25;;;;;;;;5003851;28;51558;-45
2023/02/19 12:19:22;;;;;;;;;129.50;99.75;;;;;;;;5024627;28;51248;-46
2023/02/19 12:22:10;;;;;;;;;115.75;84.75;;;;;;;;5038824;28;51137;-44
2023/02/19 12:25:06;;;;;;;;;116.50;89.50;;;;;;;;5039203;28;51107;-45
2023/02/19 12:28:03;;;;;;;;;119.25;85.00;;;;;;;;5037810;28;51403;-44
2023/02/19 12:31:02;;;;;;;;;121.50;83.25;;;;;;;;5032531;28;51352;-46
2023/02/19 12:34:05;;;;;;;;;125.50;91.50;;;;;;;;5035685;28;51520;-47
2023/02/19 12:37:01;;;;;;;;;118.00;82.50;;;;;;;;5038755;28;51057;-46
2023/02/19 12:39:58;;;;;;;;;111.25;81.50;;;;;;;;5039358;28;50992;-46
2023/02/19 12:42:59;;;;;;;;;116.00;87.50;;;;;;;;5038954;28;51289;-49
2023/02/19 12:46:06;;;;;;;;;112.50;83.75;;;;;;;;5040729;28;51488;-44
2023/02/19 12:48:55;;;;;;;;;128.25;85.00;;;;;;;;5042579;28;51158;-45
2023/02/19 12:51:48;;;;;;;;;120.50;89.25;;;;;;;;5043087;28;51146;-45
2023/02/19 12:54:39;;;;;;;;;89.00;57.00;;;;;;;;5042617;28;51437;-45
2023/02/19 12:57:26;;;;;;;;;118.50;89.50;;;;;;;;5043076;28;51109;-45
2023/02/19 13:00:19;;;;;;;;;116.00;83.25;;;;;;;;5042576;28;51204;-45
2023/02/19 13:03:04;;;;;;;;;113.75;89.75;;;;;;;;5042433;28;51018;-45
2023/02/19 13:05:51;;;;;;;;;117.00;87.75;;;;;;;;5042794;28;51021;-45
2023/02/19 13:08:40;;;;;;;;;110.25;74.25;;;;;;;;5042425;28;51170;-46
2023/02/19 13:11:28;;;;;;;;;106.25;78.00;;;;;;;;5042584;28;51039;-44
2023/02/19 13:14:25;;;;;;;;;117.75;80.75;;;;;;;;5042224;28;51976;-44
2023/02/19 13:17:12;;;;;;;;;100.75;82.50;;;;;;;;5042573;28;51014;-46
2023/02/19 13:20:01;;;;;;;;;111.50;82.50;;;;;;;;5041983;28;51328;-44
2023/02/19 13:26:02;;;;;;;;;112.25;84.50;;;;;;;;5042371;28;51425;-46
2023/02/19 13:28:59;;;;;;;;;112.25;79.50;;;;;;;;5041928;28;51166;-45
2023/02/19 13:31:43;;;;;;;;;127.50;82.00;;;;;;;;5042252;28;51160;-45
2023/02/19 13:34:57;;;;;;;;;115.00;86.25;;;;;;;;5041789;28;51043;-45
2023/02/19 13:37:42;;;;;;;;;114.50;79.00;;;;;;;;5032632;28;51518;-45
2023/02/19 13:40:34;;;;;;;;;116.50;87.50;;;;;;;;5041707;28;51219;-45
2023/02/19 13:43:23;;;;;;;;;120.25;84.75;;;;;;;;5042053;28;51174;-44
2023/02/19 13:46:09;;;;;;;;;106.75;82.50;;;;;;;;5038339;28;51920;-46
2023/02/19 13:49:35;;;;;;;;;119.75;86.25;;;;;;;;5040837;28;51158;-44
2023/02/19 13:52:28;;;;;;;;;120.75;83.75;;;;;;;;4973020;28;51560;-43
2023/02/19 13:55:30;;;;;;;;;105.50;72.00;;;;;;;;4957229;28;51165;-47
2023/02/19 13:58:33;;;;;;;;;125.50;86.75;;;;;;;;5038441;28;51341;-45
2023/02/19 14:01:17;;;;;;;;;132.75;87.50;;;;;;;;5041428;28;51075;-46
2023/02/19 14:04:17;;;;;;;;;98.25;74.00;;;;;;;;5041702;28;51359;-46
2023/02/19 14:07:02;;;;;;;;;106.50;80.50;;;;;;;;5041301;28;51225;-45
2023/02/19 14:09:46;;;;;;;;;115.75;76.00;;;;;;;;5041572;28;51112;-45
2023/02/19 14:12:34;;;;;;;;;121.75;81.00;;;;;;;;5041047;28;51356;-44
2023/02/19 14:15:40;;;;;;;;;114.75;86.25;;;;;;;;5041344;28;51410;-48
2023/02/19 14:18:41;;;;;;;;;95.25;64.75;;;;;;;;5041428;28;51549;-48
2023/02/19 14:21:35;;;;;;;;;89.75;73.25;;;;;;;;5020971;28;51564;-44
2023/02/19 14:24:21;;;;;;;;;102.25;77.00;;;;;;;;5021085;28;51085;-46
2023/02/19 14:27:05;;;;;;;;;115.50;84.25;;;;;;;;5020869;28;51116;-45
2023/02/19 14:29:51;;;;;;;;;99.50;74.75;;;;;;;;5020793;28;51036;-47
2023/02/19 14:32:35;;;;;;;;;110.25;84.25;;;;;;;;5020521;28;51202;-46
2023/02/19 14:35:29;;;;;;;;;105.75;83.00;;;;;;;;5020831;28;50967;-44
2023/02/19 14:38:19;;;;;;;;;115.50;79.25;;;;;;;;5020617;28;51362;-45
2023/02/19 14:41:05;;;;;;;;;112.00;84.00;;;;;;;;5020593;28;51101;-46
2023/02/19 14:43:51;;;;;;;;;103.00;81.25;;;;;;;;5020508;28;51489;-45
2023/02/19 14:46:44;;;;;;;;;114.00;79.75;;;;;;;;5020234;28;51133;-44
2023/02/19 14:49:32;;;;;;;;;105.75;77.50;;;;;;;;5020475;28;51115;-44
2023/02/19 14:52:35;;;;;;;;;105.75;81.50;;;;;;;;5020473;28;51156;-46
2023/02/19 14:55:19;;;;;;;;;114.00;86.25;;;;;;;;5020323;28;51106;-45
2023/02/19 14:58:05;;;;;;;;;106.75;81.25;;;;;;;;5020004;28;51101;-46
2023/02/19 15:00:49;;;;;;;;;114.00;81.25;;;;;;;;5020206;28;51190;-44
2023/02/19 15:03:35;;;;;;;;;113.00;87.50;;;;;;;;5019736;28;51205;-45
2023/02/19 15:06:22;;;;;;;;;108.00;74.25;;;;;;;;5020134;28;51027;-45
2023/02/19 15:09:06;;;;;;;;;86.00;58.00;;;;;;;;5018973;28;51504;-45
2023/02/19 15:11:52;;;;;;;;;104.00;77.00;;;;;;;;5019695;28;51031;-46
2023/02/19 15:14:39;;;;;;;;;106.25;77.00;;;;;;;;5019937;28;51067;-45
2023/02/19 15:17:28;;;;;;;;;110.75;72.75;;;;;;;;5019824;28;51121;-46
2023/02/19 15:20:16;;;;;;;;;106.00;82.75;;;;;;;;5033924;28;51012;-44
2023/02/19 15:23:01;;;;;;;;;95.50;65.50;;;;;;;;5040007;28;51410;-46
2023/02/19 15:25:45;;;;;;;;;103.75;82.00;;;;;;;;5039937;28;51099;-46
2023/02/19 15:28:31;;;;;;;;;106.75;76.25;;;;;;;;5039918;28;51134;-44
2023/02/19 15:31:15;;;;;;;;;97.75;65.50;;;;;;;;5039866;28;51180;-45
2023/02/19 15:34:00;;;;;;;;;101.25;77.00;;;;;;;;5040016;28;51105;-45
2023/02/19 15:36:45;;;;;;;;;98.25;64.50;;;;;;;;5039813;28;51054;-46
2023/02/19 15:39:49;;;;;;;;;97.50;71.50;;;;;;;;5039753;28;51460;-45
2023/02/19 15:42:34;;;;;;;;;95.25;73.50;;;;;;;;5039732;28;51183;-46
2023/02/19 15:45:24;;;;;;;;;96.25;72.00;;;;;;;;5039740;28;51635;-44
2023/02/19 15:48:18;;;;;;;;;108.00;69.25;;;;;;;;5039503;28;51034;-44
2023/02/19 15:51:07;;;;;;;;;92.25;75.00;;;;;;;;5039620;28;51097;-51
2023/02/19 15:53:55;;;;;;;;;97.75;75.75;;;;;;;;5039117;28;51481;-48
2023/02/19 15:56:40;;;;;;;;;98.00;71.50;;;;;;;;5038350;28;51101;-45
2023/02/19 15:59:39;;;;;;;;;99.50;66.00;;;;;;;;5024048;28;51586;-44
2023/02/19 16:02:23;;;;;;;;;97.50;69.00;;;;;;;;5039570;28;51101;-44
2023/02/19 16:05:16;;;;;;;;;96.25;65.25;;;;;;;;5026540;28;52791;-44
2023/02/19 16:08:15;;;;;;;;;98.50;68.75;;;;;;;;5039325;28;51119;-44
2023/02/19 16:11:02;;;;;;;;;83.75;68.00;;;;;;;;5039305;28;51592;-48
2023/02/19 16:13:46;;;;;;;;;97.00;70.25;;;;;;;;5027919;28;51021;-45
2023/02/19 16:16:34;;;;;;;;;94.50;67.25;;;;;;;;5018424;28;51315;-44
2023/02/19 16:19:23;;;;;;;;;87.00;63.50;;;;;;;;5024701;28;51157;-45
2023/02/19 16:22:09;;;;;;;;;90.75;64.00;;;;;;;;5037859;28;51207;-44
2023/02/19 16:24:58;;;;;;;;;94.50;65.00;;;;;;;;5038656;28;51620;-45
2023/02/19 16:27:42;;;;;;;;;103.50;71.00;;;;;;;;5038843;28;51175;-43
2023/02/19 16:30:32;;;;;;;;;99.25;72.75;;;;;;;;5038627;28;51567;-44
2023/02/19 16:33:26;;;;;;;;;107.75;72.25;;;;;;;;5038950;28;51040;-45